Overview Statistics Trail Chart Weather Telemetry Raw packets
 

This is the latest recevied weather packets stored in our database for station/object EA1HEH-13. If no packets are shown the sender has not sent any weather packets the latest 10 day(s).

<< 38 39 40 41 42 43 44 >>
Time Temp. Humidity Pressure Rain* Wind** Luminosity Snow
1788039281 23.89° C 39% 939 hPa - - - -
1788038681 23.89° C 39% 938.9 hPa - - - -
1788038081 23.89° C 40% 939 hPa - - - -
1788037481 23.89° C 40% 938.8 hPa - - - -
1788036881 23.89° C 41% 938.7 hPa - - - -
1788036281 23.89° C 42% 938.7 hPa - - - -
1788035681 23.89° C 42% 938.6 hPa - - - -
1788035081 23.89° C 43% 938.6 hPa - - - -
1788034481 23.89° C 43% 938.6 hPa - - - -
1788033881 23.89° C 43% 938.5 hPa - - - -
1788033281 23.89° C 43% 938.6 hPa - - - -
1788032681 23.89° C 43% 938.5 hPa - - - -
1788032083 23.89° C 44% 938.3 hPa - - - -
1788031481 23.89° C 45% 938.2 hPa - - - -
1788030884 24.44° C 45% 938.1 hPa - - - -
1788030281 24.44° C 44% 938.1 hPa - - - -
1788029681 24.44° C 41% 938.1 hPa - - - -
1788029081 26.67° C 24% 938.5 hPa - - - -
1788028481 27.22° C 20% 938.6 hPa - - - -
1788027881 27.22° C 20% 938.6 hPa - - - -
1788027281 27.22° C 20% 938.6 hPa - - - -
1788026681 27.22° C 20% 938.6 hPa - - - -
1788026081 27.22° C 20% 938.6 hPa - - - -
1788025481 27.22° C 20% 938.6 hPa - - - -
1788024881 27.22° C 20% 938.6 hPa - - - -

* Rain since midnight (hover to see other rain measurements)
** Current wind speed in m/s (hover to see current wind gust speed)